createdAt,value
2023-05-18T00:02:19.120Z,1.65
2023-05-18T00:04:46.275Z,2.10
2023-05-18T00:07:14.639Z,2.17
2023-05-18T00:09:41.602Z,2.20
2023-05-18T00:12:09.956Z,2.25
2023-05-18T00:14:37.304Z,2.42
2023-05-18T00:17:04.368Z,1.90
2023-05-18T00:19:31.472Z,2.03
2023-05-18T00:21:58.544Z,2.50
2023-05-18T00:24:25.572Z,2.00
2023-05-18T00:26:52.589Z,1.92
2023-05-18T00:29:19.599Z,2.17
2023-05-18T00:31:47.158Z,2.15
2023-05-18T00:34:16.033Z,1.88
2023-05-18T00:36:43.143Z,1.90
2023-05-18T00:39:10.377Z,2.15
2023-05-18T00:41:37.477Z,1.73
2023-05-18T00:44:05.129Z,2.13
2023-05-18T00:46:32.440Z,2.55
2023-05-18T00:49:02.003Z,2.33
2023-05-18T00:51:29.908Z,1.70
2023-05-18T00:54:01.517Z,2.05
2023-05-18T00:56:29.459Z,2.22
2023-05-18T00:58:57.545Z,2.10
2023-05-18T01:01:43.267Z,2.38
2023-05-18T01:06:37.405Z,2.15
2023-05-18T01:09:07.840Z,2.47
2023-05-18T01:11:50.161Z,2.67
2023-05-18T01:14:38.124Z,2.25
2023-05-18T01:17:43.813Z,2.10
2023-05-18T01:20:28.987Z,2.28
2023-05-18T01:23:42.184Z,2.53
2023-05-18T01:26:33.220Z,2.13
2023-05-18T01:29:07.306Z,2.20
2023-05-18T01:31:34.700Z,2.33
2023-05-18T01:34:02.908Z,2.45
2023-05-18T01:36:29.867Z,2.30
2023-05-18T01:39:01.630Z,2.40
2023-05-18T01:41:31.692Z,2.20
2023-05-18T01:44:44.777Z,2.15
2023-05-18T01:47:16.984Z,2.10
2023-05-18T01:50:08.554Z,2.35
2023-05-18T01:52:39.767Z,2.42
2023-05-18T01:55:09.920Z,2.10
2023-05-18T01:57:41.331Z,2.35
2023-05-18T02:00:10.219Z,2.13
2023-05-18T02:02:45.203Z,2.80
2023-05-18T02:05:14.900Z,2.17
2023-05-18T02:07:43.993Z,2.35
2023-05-18T02:10:12.059Z,2.60
2023-05-18T02:12:39.043Z,2.30
2023-05-18T02:15:07.473Z,2.35
2023-05-18T02:17:38.185Z,2.33
2023-05-18T02:20:07.331Z,2.72
2023-05-18T02:22:35.385Z,2.80
2023-05-18T02:25:05.088Z,2.20
2023-05-18T02:27:33.358Z,2.40
2023-05-18T02:30:00.364Z,2.35
2023-05-18T02:32:27.919Z,2.30
2023-05-18T02:34:55.265Z,2.20
2023-05-18T02:37:23.257Z,2.63
2023-05-18T02:39:50.527Z,2.50
2023-05-18T02:42:17.458Z,2.60
2023-05-18T02:44:44.599Z,2.38
2023-05-18T02:47:14.834Z,2.15
2023-05-18T02:49:41.837Z,2.33
2023-05-18T02:52:09.197Z,2.25
2023-05-18T02:54:36.306Z,2.10
2023-05-18T02:57:05.769Z,2.58
2023-05-18T02:59:40.932Z,2.30
2023-05-18T03:02:07.988Z,2.30
2023-05-18T03:04:34.978Z,2.20
2023-05-18T03:07:02.789Z,2.10
2023-05-18T03:09:30.069Z,2.63
2023-05-18T03:11:57.443Z,2.28
2023-05-18T03:14:24.511Z,2.33
2023-05-18T03:16:54.230Z,2.22
2023-05-18T03:19:22.692Z,2.25
2023-05-18T03:21:50.169Z,2.63
2023-05-18T03:24:17.482Z,2.13
2023-05-18T03:26:48.137Z,2.80
2023-05-18T03:29:15.103Z,2.15
2023-05-18T03:31:43.044Z,2.40
2023-05-18T03:34:11.529Z,2.25
2023-05-18T03:36:38.753Z,2.63
2023-05-18T03:39:06.728Z,2.45
2023-05-18T03:41:35.095Z,2.60
2023-05-18T03:44:03.043Z,2.50
2023-05-18T03:46:31.323Z,2.28
2023-05-18T03:48:58.647Z,2.10
2023-05-18T03:51:33.017Z,2.55
2023-05-18T03:54:00.757Z,2.40
2023-05-18T03:56:31.061Z,2.17
2023-05-18T03:59:01.326Z,2.70
2023-05-18T04:01:30.230Z,2.60
2023-05-18T04:03:57.880Z,2.55
2023-05-18T04:06:26.267Z,2.83
2023-05-18T04:08:53.685Z,2.20
2023-05-18T04:11:22.390Z,2.63
2023-05-18T04:13:50.809Z,2.40
2023-05-18T04:16:18.247Z,2.75
2023-05-18T04:18:45.428Z,2.75
2023-05-18T04:21:12.470Z,2.65
2023-05-18T04:23:40.787Z,3.05
2023-05-18T04:26:09.063Z,2.53
2023-05-18T04:28:37.614Z,2.80
2023-05-18T04:31:05.055Z,2.90
2023-05-18T04:33:32.773Z,3.08
2023-05-18T04:36:04.972Z,2.85
2023-05-18T04:38:34.635Z,3.05
2023-05-18T04:41:06.576Z,2.83
2023-05-18T04:43:34.085Z,3.25
2023-05-18T04:46:01.038Z,3.38
2023-05-18T04:48:29.269Z,3.10
2023-05-18T04:50:56.266Z,3.47
2023-05-18T04:53:23.204Z,3.58
2023-05-18T04:55:50.256Z,3.15
2023-05-18T04:58:17.246Z,3.30
2023-05-18T05:00:44.482Z,2.97
2023-05-18T05:03:11.815Z,3.63
2023-05-18T05:05:38.815Z,3.22
2023-05-18T05:08:07.286Z,3.40
2023-05-18T05:10:34.269Z,3.53
2023-05-18T05:13:01.293Z,3.30
2023-05-18T05:15:28.488Z,3.28
2023-05-18T05:17:55.867Z,3.15
2023-05-18T05:20:23.499Z,3.20
2023-05-18T05:22:50.470Z,3.10
2023-05-18T05:25:22.847Z,3.20
2023-05-18T05:27:50.727Z,2.72
2023-05-18T05:30:20.686Z,3.15
2023-05-18T05:32:47.756Z,3.20
2023-05-18T05:35:15.464Z,2.90
2023-05-18T05:37:42.501Z,3.35
2023-05-18T05:40:10.685Z,3.15
2023-05-18T05:42:42.453Z,2.58
2023-05-18T05:45:10.384Z,3.17
2023-05-18T05:47:44.284Z,2.88
2023-05-18T05:50:12.191Z,3.10
2023-05-18T05:52:39.542Z,2.88
2023-05-18T05:55:07.369Z,3.00
2023-05-18T05:57:34.464Z,2.97
2023-05-18T06:00:01.588Z,2.85
2023-05-18T06:02:30.109Z,2.72
2023-05-18T06:04:57.717Z,3.00
2023-05-18T06:07:25.522Z,2.35
2023-05-18T06:09:52.666Z,2.90
2023-05-18T06:12:19.697Z,2.75
2023-05-18T06:14:47.677Z,3.20
2023-05-18T06:17:14.807Z,2.80
2023-05-18T06:19:41.987Z,3.03
2023-05-18T06:22:08.978Z,2.85
2023-05-18T06:24:45.096Z,2.33
2023-05-18T06:27:30.921Z,2.72
2023-05-18T06:30:21.086Z,2.88
2023-05-18T06:33:18.110Z,2.88
2023-05-18T06:35:45.357Z,2.50
2023-05-18T06:38:12.700Z,2.40
2023-05-18T06:40:39.838Z,2.53
2023-05-18T06:43:06.878Z,2.65
2023-05-18T06:45:48.202Z,2.85
2023-05-18T06:48:30.992Z,2.17
2023-05-18T06:50:57.910Z,2.80
2023-05-18T06:53:25.007Z,2.17
2023-05-18T06:55:51.905Z,2.10
2023-05-18T06:58:20.809Z,2.53
2023-05-18T07:00:49.211Z,2.25
2023-05-18T07:03:16.943Z,2.95
2023-05-18T07:05:44.023Z,2.45
2023-05-18T07:08:10.931Z,2.50
2023-05-18T07:10:38.954Z,2.10
2023-05-18T07:13:06.067Z,2.50
2023-05-18T07:15:33.587Z,2.55
2023-05-18T07:18:04.043Z,2.63
2023-05-18T07:20:31.113Z,1.95
2023-05-18T07:22:58.022Z,2.22
2023-05-18T07:25:25.023Z,2.90
2023-05-18T07:27:54.811Z,2.60
2023-05-18T07:30:23.198Z,2.33
2023-05-18T07:32:51.309Z,1.83
2023-05-18T07:35:22.038Z,2.20
2023-05-18T07:37:51.801Z,2.60
2023-05-18T07:40:19.136Z,2.58
2023-05-18T07:42:46.725Z,2.35
2023-05-18T07:45:14.006Z,2.70
2023-05-18T07:47:41.045Z,2.40
2023-05-18T07:50:08.754Z,2.42
2023-05-18T07:52:35.861Z,2.60
2023-05-18T07:55:03.185Z,2.50
2023-05-18T07:57:30.940Z,2.55
2023-05-18T07:59:57.965Z,2.40
2023-05-18T08:02:25.092Z,2.00
2023-05-18T08:04:52.069Z,2.08
2023-05-18T08:07:18.931Z,2.20
2023-05-18T08:09:46.196Z,2.58
2023-05-18T08:12:13.218Z,2.50
2023-05-18T08:14:40.636Z,2.13
2023-05-18T08:17:07.581Z,2.40
2023-05-18T08:19:34.620Z,3.08
2023-05-18T08:22:01.475Z,2.42
2023-05-18T08:24:28.357Z,2.38
2023-05-18T08:26:55.404Z,2.58
2023-05-18T08:29:22.402Z,2.10
2023-05-18T08:31:49.891Z,2.53
2023-05-18T08:34:17.213Z,2.45
2023-05-18T08:36:46.137Z,2.65
2023-05-18T08:39:31.911Z,2.40
2023-05-18T08:42:59.021Z,2.65
2023-05-18T08:46:32.750Z,2.72
2023-05-18T08:49:38.945Z,2.50
2023-05-18T08:52:19.436Z,2.40
2023-05-18T08:54:51.601Z,2.53
2023-05-18T08:57:22.372Z,2.30
2023-05-18T08:59:53.007Z,2.67
2023-05-18T09:02:20.357Z,2.13
2023-05-18T09:04:48.843Z,2.28
2023-05-18T09:07:18.021Z,2.58
2023-05-18T09:09:47.740Z,2.13
2023-05-18T09:12:17.143Z,2.40
2023-05-18T09:14:46.327Z,2.42
2023-05-18T09:17:33.430Z,2.25
2023-05-18T09:20:08.015Z,2.20
2023-05-18T09:22:36.821Z,2.47
2023-05-18T09:25:12.185Z,2.20
2023-05-18T09:27:44.553Z,2.35
2023-05-18T09:30:16.712Z,2.40
2023-05-18T09:32:53.896Z,2.40
2023-05-18T09:35:51.024Z,2.50
2023-05-18T09:38:37.116Z,2.55
2023-05-18T09:41:15.987Z,2.63
2023-05-18T09:43:51.223Z,2.45
2023-05-18T09:46:21.792Z,2.78
2023-05-18T09:48:56.242Z,2.92
2023-05-18T09:51:25.363Z,2.45
2023-05-18T09:53:58.224Z,2.28
2023-05-18T09:56:26.905Z,2.50
2023-05-18T09:58:55.071Z,2.55
2023-05-18T10:01:22.043Z,2.13
2023-05-18T10:03:49.815Z,2.35
2023-05-18T10:06:22.353Z,2.15
2023-05-18T10:08:50.280Z,2.08
2023-05-18T10:11:20.309Z,2.88
2023-05-18T10:13:47.401Z,2.22
2023-05-18T10:16:16.618Z,2.70
2023-05-18T10:18:45.821Z,2.42
2023-05-18T10:21:22.364Z,2.63
2023-05-18T10:24:09.172Z,2.35
2023-05-18T10:26:41.038Z,2.58
2023-05-18T10:29:10.784Z,2.90
2023-05-18T10:31:40.960Z,2.80
2023-05-18T10:34:20.417Z,2.22
2023-05-18T10:36:59.570Z,2.30
2023-05-18T10:39:32.159Z,2.47
2023-05-18T10:42:01.615Z,2.50
2023-05-18T10:44:33.004Z,2.40
2023-05-18T10:47:00.710Z,2.65
2023-05-18T10:49:32.079Z,2.22
2023-05-18T10:52:04.169Z,2.60
2023-05-18T10:54:31.208Z,2.28
2023-05-18T10:57:05.146Z,2.72
2023-05-18T10:59:35.443Z,2.37
2023-05-18T11:02:04.263Z,2.03
2023-05-18T11:04:32.543Z,2.38
2023-05-18T11:07:05.930Z,2.50
2023-05-18T11:09:58.905Z,2.22
2023-05-18T11:13:00.609Z,2.80
2023-05-18T11:16:00.360Z,2.38
2023-05-18T11:18:48.263Z,2.53
2023-05-18T11:21:52.040Z,2.30
2023-05-18T11:24:35.169Z,2.15
2023-05-18T11:27:17.456Z,2.45
2023-05-18T11:32:33.280Z,2.20
2023-05-18T11:35:02.126Z,2.42
2023-05-18T11:37:39.316Z,2.40
2023-05-18T11:40:14.110Z,2.05
2023-05-18T11:42:59.677Z,2.10
2023-05-18T11:45:35.830Z,2.30
2023-05-18T11:48:10.016Z,2.20
2023-05-18T11:50:41.387Z,2.55
2023-05-18T11:53:17.515Z,2.17
2023-05-18T11:56:10.310Z,2.15
2023-05-18T11:58:46.448Z,2.38
2023-05-18T12:01:19.420Z,2.10
2023-05-18T12:03:55.391Z,2.20
2023-05-18T12:07:29.417Z,2.47
2023-05-18T12:10:31.937Z,2.03
2023-05-18T12:13:08.116Z,2.28
2023-05-18T12:15:45.722Z,1.63
2023-05-18T12:18:27.141Z,2.85
2023-05-18T12:20:58.679Z,2.22
2023-05-18T12:23:40.215Z,2.40
2023-05-18T12:26:09.667Z,2.10
2023-05-18T12:28:39.879Z,2.20
2023-05-18T12:31:32.318Z,2.25
2023-05-18T12:34:18.432Z,2.55
2023-05-18T12:36:57.492Z,2.30
2023-05-18T12:39:29.812Z,2.00
2023-05-18T12:42:12.315Z,2.05
2023-05-18T12:44:40.742Z,1.90
2023-05-18T12:47:08.018Z,2.25
2023-05-18T12:49:40.757Z,2.00
2023-05-18T12:52:16.634Z,2.10
2023-05-18T12:54:58.674Z,1.77
2023-05-18T12:57:27.426Z,1.73
2023-05-18T12:59:54.899Z,2.15
2023-05-18T13:02:37.386Z,2.08
2023-05-18T13:05:12.307Z,2.13
2023-05-18T13:10:13.455Z,2.13
2023-05-18T13:12:50.060Z,1.60
2023-05-18T13:15:23.063Z,2.08
2023-05-18T13:18:03.840Z,1.42
2023-05-18T13:20:54.050Z,2.13
2023-05-18T13:23:28.937Z,1.80
2023-05-18T13:28:27.880Z,2.22
2023-05-18T13:30:54.944Z,1.52
2023-05-18T13:33:21.948Z,2.00
2023-05-18T13:35:49.953Z,1.70
2023-05-18T13:38:17.318Z,1.80
2023-05-18T13:40:46.383Z,2.00
2023-05-18T13:43:13.994Z,1.88
2023-05-18T13:45:42.279Z,1.83
2023-05-18T13:48:10.661Z,1.80
2023-05-18T13:50:39.473Z,1.73
2023-05-18T13:53:07.002Z,1.58
2023-05-18T13:55:34.743Z,1.70
2023-05-18T13:58:01.844Z,1.45
2023-05-18T14:00:28.855Z,1.88
2023-05-18T14:02:56.645Z,1.75
2023-05-18T14:05:24.102Z,1.80
2023-05-18T14:07:54.449Z,1.58
2023-05-18T14:10:21.565Z,1.80
2023-05-18T14:12:49.231Z,1.80
2023-05-18T14:15:16.295Z,1.40
2023-05-18T14:17:44.554Z,2.10
2023-05-18T14:20:12.916Z,1.30
2023-05-18T14:22:40.818Z,1.40
2023-05-18T14:25:08.493Z,1.60
2023-05-18T14:27:35.530Z,1.70
2023-05-18T14:30:02.824Z,1.75
2023-05-18T14:32:37.069Z,1.75
2023-05-18T14:36:04.751Z,2.20
2023-05-18T14:39:08.728Z,1.88
2023-05-18T14:41:38.315Z,1.67
2023-05-18T14:44:30.508Z,1.45
2023-05-18T14:47:08.827Z,1.60
2023-05-18T14:49:37.409Z,1.65
2023-05-18T14:52:06.255Z,1.90
2023-05-18T14:54:36.049Z,1.75
2023-05-18T14:57:10.803Z,1.40
2023-05-18T14:59:43.390Z,1.42
2023-05-18T15:02:41.583Z,1.52
2023-05-18T15:05:15.383Z,1.52
2023-05-18T15:07:42.967Z,1.45
2023-05-18T15:10:11.010Z,1.63
2023-05-18T15:12:38.090Z,1.45
2023-05-18T15:15:05.801Z,1.85
2023-05-18T15:17:32.750Z,1.55
2023-05-18T15:20:00.204Z,1.98
2023-05-18T15:22:27.506Z,1.67
2023-05-18T15:24:55.131Z,1.85
2023-05-18T15:27:22.193Z,1.40
2023-05-18T15:29:49.941Z,1.60
2023-05-18T15:32:17.872Z,1.90
2023-05-18T15:34:44.956Z,1.52
2023-05-18T15:37:11.957Z,1.70
2023-05-18T15:39:38.898Z,1.35
2023-05-18T15:42:06.273Z,1.35
2023-05-18T15:44:33.291Z,2.00
2023-05-18T15:47:01.425Z,1.55
2023-05-18T15:49:28.695Z,1.50
2023-05-18T15:51:55.727Z,1.40
2023-05-18T15:54:22.980Z,1.75
2023-05-18T15:56:50.177Z,1.48
2023-05-18T15:59:17.165Z,1.55
2023-05-18T16:01:55.017Z,1.50
2023-05-18T16:04:38.357Z,1.30
2023-05-18T16:07:45.267Z,1.33
2023-05-18T16:10:14.864Z,1.42
2023-05-18T16:12:43.341Z,1.38
2023-05-18T16:15:11.645Z,1.83
2023-05-18T16:17:41.083Z,1.77
2023-05-18T16:20:10.350Z,1.63
2023-05-18T16:22:40.534Z,1.70
2023-05-18T16:25:13.526Z,1.45
2023-05-18T16:27:43.334Z,1.60
2023-05-18T16:30:14.588Z,1.20
2023-05-18T16:32:45.460Z,1.48
2023-05-18T16:35:50.597Z,1.30
2023-05-18T16:38:59.576Z,1.65
2023-05-18T16:41:30.355Z,1.65
2023-05-18T16:44:02.700Z,1.65
2023-05-18T16:46:30.253Z,1.40
2023-05-18T16:48:57.250Z,1.55
2023-05-18T16:51:26.593Z,1.73
2023-05-18T16:53:55.455Z,1.45
2023-05-18T16:56:22.684Z,2.05
2023-05-18T16:58:53.060Z,1.60
2023-05-18T17:01:28.524Z,1.73
2023-05-18T17:04:01.990Z,1.90
2023-05-18T17:06:51.264Z,1.52
2023-05-18T17:09:24.456Z,1.80
2023-05-18T17:11:54.275Z,2.05
2023-05-18T17:14:23.054Z,1.70
2023-05-18T17:16:53.485Z,2.30
2023-05-18T17:19:27.382Z,1.90
2023-05-18T17:22:01.909Z,1.77
2023-05-18T17:24:38.983Z,1.60
2023-05-18T17:27:37.399Z,1.80
2023-05-18T17:30:13.437Z,1.48
2023-05-18T17:32:53.000Z,1.70
2023-05-18T17:35:21.756Z,1.70
2023-05-18T17:37:57.096Z,1.60
2023-05-18T17:40:25.852Z,1.48
2023-05-18T17:43:02.622Z,1.73
2023-05-18T17:45:40.226Z,1.65
2023-05-18T17:48:29.121Z,1.60
2023-05-18T17:51:13.259Z,1.52
2023-05-18T17:53:43.180Z,2.00
2023-05-18T17:56:14.896Z,1.70
2023-05-18T17:58:44.545Z,1.88
2023-05-18T18:01:14.490Z,1.67
2023-05-18T18:04:21.729Z,1.63
2023-05-18T18:07:05.950Z,1.77
2023-05-18T18:09:35.933Z,1.85
2023-05-18T18:12:08.371Z,1.40
2023-05-18T18:14:41.682Z,1.45
2023-05-18T18:17:10.904Z,1.45
2023-05-18T18:24:41.224Z,1.80
2023-05-18T18:27:33.162Z,1.80
2023-05-18T18:30:12.689Z,1.75
2023-05-18T18:33:16.924Z,1.63
2023-05-18T18:36:17.034Z,1.63
2023-05-18T18:43:52.203Z,2.00
2023-05-18T18:46:38.668Z,1.50
2023-05-18T18:52:06.999Z,1.70
2023-05-18T18:54:52.735Z,1.85
2023-05-18T18:57:35.410Z,1.70
2023-05-18T19:00:17.492Z,1.67
2023-05-18T19:06:25.519Z,2.20
2023-05-18T19:12:48.076Z,2.20
2023-05-18T19:15:36.344Z,1.85
2023-05-18T19:19:18.735Z,2.00
2023-05-18T19:26:15.711Z,2.22
2023-05-18T19:30:42.258Z,2.60
2023-05-18T19:36:48.458Z,6.25
2023-05-18T19:39:33.034Z,3.58
2023-05-18T19:42:26.058Z,3.00
2023-05-18T19:45:11.031Z,2.03
2023-05-18T19:47:48.084Z,2.30
2023-05-18T19:50:54.353Z,2.25
2023-05-18T19:53:26.357Z,3.10
2023-05-18T19:56:09.146Z,2.92
2023-05-18T19:58:42.826Z,3.40
2023-05-18T20:01:33.818Z,2.85
2023-05-18T20:12:14.868Z,2.70
2023-05-18T20:14:52.257Z,3.10
2023-05-18T20:17:50.167Z,2.40
2023-05-18T20:23:17.408Z,2.38
2023-05-18T20:29:21.919Z,2.30
2023-05-18T20:32:26.523Z,2.90
2023-05-18T20:35:19.890Z,2.60
2023-05-18T20:38:37.980Z,2.75
2023-05-18T20:41:10.049Z,4.22
2023-05-18T20:43:38.591Z,2.42
2023-05-18T20:46:06.631Z,5.57
2023-05-18T20:48:40.570Z,3.75
2023-05-18T20:51:28.323Z,3.50
2023-05-18T20:54:21.755Z,2.70
2023-05-18T20:57:11.247Z,4.22
2023-05-18T20:59:41.486Z,2.95
2023-05-18T21:02:40.919Z,2.22
2023-05-18T21:05:14.664Z,2.40
2023-05-18T21:07:48.631Z,3.95
2023-05-18T21:10:30.140Z,3.15
2023-05-18T21:12:58.743Z,6.13
2023-05-18T21:15:29.332Z,4.68
2023-05-18T21:17:56.864Z,3.35
2023-05-18T21:20:24.028Z,3.38
2023-05-18T21:22:51.366Z,3.70
2023-05-18T21:25:19.558Z,4.47
2023-05-18T21:27:46.697Z,3.70
2023-05-18T21:30:15.836Z,3.35
2023-05-18T21:32:43.654Z,3.17
2023-05-18T21:35:11.060Z,2.80
2023-05-18T21:37:38.369Z,3.15
2023-05-18T21:40:07.116Z,3.72
2023-05-18T21:42:34.217Z,3.63
2023-05-18T21:45:01.466Z,2.70
2023-05-18T21:47:28.652Z,2.50
2023-05-18T21:49:55.720Z,2.83
2023-05-18T21:52:22.730Z,3.15
2023-05-18T21:54:49.824Z,2.38
2023-05-18T21:57:16.966Z,3.20
2023-05-18T21:59:43.976Z,2.88
2023-05-18T22:02:11.222Z,3.42
2023-05-18T22:04:38.350Z,3.92
2023-05-18T22:07:05.939Z,3.40
2023-05-18T22:09:33.125Z,3.47
2023-05-18T22:12:00.247Z,3.03
2023-05-18T22:14:27.372Z,4.78
2023-05-18T22:16:54.444Z,3.50
2023-05-18T22:19:21.653Z,2.75
2023-05-18T22:21:48.802Z,2.60
2023-05-18T22:24:16.487Z,2.55
2023-05-18T22:26:43.638Z,3.33
2023-05-18T22:29:11.141Z,3.38
2023-05-18T22:31:38.370Z,3.00
2023-05-18T22:34:05.988Z,2.85
2023-05-18T22:36:33.039Z,2.72
2023-05-18T22:39:00.308Z,2.47
2023-05-18T22:41:27.322Z,2.90
2023-05-18T22:43:54.607Z,2.70
2023-05-18T22:46:21.778Z,2.63
2023-05-18T22:48:49.226Z,2.28
2023-05-18T22:51:16.563Z,2.72
2023-05-18T22:53:43.662Z,2.45
2023-05-18T22:56:10.860Z,2.20
2023-05-18T22:58:38.054Z,2.60
2023-05-18T23:01:05.982Z,2.20
2023-05-18T23:03:33.108Z,2.15
2023-05-18T23:06:03.084Z,2.53
2023-05-18T23:08:30.746Z,2.55
2023-05-18T23:10:58.469Z,3.03
2023-05-18T23:13:25.689Z,2.70
2023-05-18T23:15:56.544Z,2.40
2023-05-18T23:18:26.532Z,2.67
2023-05-18T23:20:58.562Z,2.85
2023-05-18T23:23:28.311Z,2.75
2023-05-18T23:25:55.506Z,2.95
2023-05-18T23:28:22.553Z,2.80
2023-05-18T23:30:49.719Z,2.10
2023-05-18T23:33:17.169Z,2.50
2023-05-18T23:35:46.890Z,2.58
2023-05-18T23:38:19.804Z,2.40
2023-05-18T23:40:48.917Z,2.50
2023-05-18T23:43:16.858Z,2.90
2023-05-18T23:45:44.084Z,2.97
2023-05-18T23:48:11.893Z,2.50
2023-05-18T23:50:41.766Z,2.60
2023-05-18T23:53:12.021Z,2.05
2023-05-18T23:55:41.647Z,2.97
2023-05-18T23:58:09.645Z,2.30
